sensor_id;sensor_type;location;lat;lon;timestamp;pressure;altitude;pressure_sealevel;temperature;humidity
34979;BME280;21185;50.978;13.720;2022-08-26T00:02:52;98180.94;;;22.75;73.20
34979;BME280;21185;50.978;13.720;2022-08-26T00:07:55;98177.97;;;22.71;73.29
34979;BME280;21185;50.978;13.720;2022-08-26T00:12:58;98176.84;;;22.67;73.04
34979;BME280;21185;50.978;13.720;2022-08-26T00:18:00;98166.50;;;22.66;73.34
34979;BME280;21185;50.978;13.720;2022-08-26T00:23:01;98163.88;;;22.66;73.17
34979;BME280;21185;50.978;13.720;2022-08-26T00:33:07;98157.47;;;22.61;73.17
34979;BME280;21185;50.978;13.720;2022-08-26T00:38:10;98153.44;;;22.59;73.45
34979;BME280;21185;50.978;13.720;2022-08-26T00:43:12;98153.94;;;22.56;73.44
34979;BME280;21185;50.978;13.720;2022-08-26T00:48:18;98150.72;;;22.54;73.72
34979;BME280;21185;50.978;13.720;2022-08-26T00:53:23;98149.38;;;22.51;73.67
34979;BME280;21185;50.978;13.720;2022-08-26T00:58:30;98141.69;;;22.50;73.43
34979;BME280;21185;50.978;13.720;2022-08-26T01:03:36;98142.97;;;22.47;73.73
34979;BME280;21185;50.978;13.720;2022-08-26T01:08:39;98138.16;;;22.44;73.62
34979;BME280;21185;50.978;13.720;2022-08-26T01:13:42;98141.84;;;22.43;73.55
34979;BME280;21185;50.978;13.720;2022-08-26T01:18:44;98135.19;;;22.41;73.64
34979;BME280;21185;50.978;13.720;2022-08-26T01:23:49;98142.56;;;22.39;74.05
34979;BME280;21185;50.978;13.720;2022-08-26T01:29:00;98129.59;;;22.37;73.92
34979;BME280;21185;50.978;13.720;2022-08-26T01:39:20;98126.63;;;22.34;73.86
34979;BME280;21185;50.978;13.720;2022-08-26T01:44:24;98128.72;;;22.32;74.02
34979;BME280;21185;50.978;13.720;2022-08-26T01:49:28;98138.72;;;22.29;73.87
34979;BME280;21185;50.978;13.720;2022-08-26T01:54:32;98137.44;;;22.32;73.94
34979;BME280;21185;50.978;13.720;2022-08-26T01:59:35;98129.75;;;22.30;74.14
34979;BME280;21185;50.978;13.720;2022-08-26T02:04:42;98134.25;;;22.30;74.47
34979;BME280;21185;50.978;13.720;2022-08-26T02:09:50;98134.72;;;22.27;74.35
34979;BME280;21185;50.978;13.720;2022-08-26T02:14:54;98144.16;;;22.23;74.52
34979;BME280;21185;50.978;13.720;2022-08-26T02:19:59;98137.28;;;22.22;74.55
34979;BME280;21185;50.978;13.720;2022-08-26T02:30:23;98133.19;;;22.14;74.77
34979;BME280;21185;50.978;13.720;2022-08-26T02:35:30;98131.59;;;22.13;74.67
34979;BME280;21185;50.978;13.720;2022-08-26T02:40:38;98131.03;;;22.11;74.46
34979;BME280;21185;50.978;13.720;2022-08-26T02:45:42;98134.72;;;22.10;74.46
34979;BME280;21185;50.978;13.720;2022-08-26T02:50:45;98134.41;;;22.07;74.51
34979;BME280;21185;50.978;13.720;2022-08-26T02:55:48;98131.19;;;22.05;74.91
34979;BME280;21185;50.978;13.720;2022-08-26T03:00:50;98131.44;;;22.03;74.51
34979;BME280;21185;50.978;13.720;2022-08-26T03:05:54;98124.75;;;22.01;74.87
34979;BME280;21185;50.978;13.720;2022-08-26T03:10:56;98126.81;;;21.98;74.98
34979;BME280;21185;50.978;13.720;2022-08-26T03:16:00;98119.94;;;21.97;75.03
34979;BME280;21185;50.978;13.720;2022-08-26T03:21:08;98112.25;;;21.96;74.81
34979;BME280;21185;50.978;13.720;2022-08-26T03:26:12;98115.13;;;21.94;74.92
34979;BME280;21185;50.978;13.720;2022-08-26T03:31:15;98125.16;;;21.92;75.25
34979;BME280;21185;50.978;13.720;2022-08-26T03:36:17;98116.66;;;21.90;74.84
34979;BME280;21185;50.978;13.720;2022-08-26T03:41:20;98120.56;;;21.88;75.08
34979;BME280;21185;50.978;13.720;2022-08-26T03:46:22;98112.31;;;21.84;74.90
34979;BME280;21185;50.978;13.720;2022-08-26T03:51:27;98103.84;;;21.82;74.95
34979;BME280;21185;50.978;13.720;2022-08-26T03:56:32;98108.56;;;21.80;75.08
34979;BME280;21185;50.978;13.720;2022-08-26T04:01:35;98098.22;;;21.79;75.05
34979;BME280;21185;50.978;13.720;2022-08-26T04:06:40;98100.06;;;21.78;75.36
34979;BME280;21185;50.978;13.720;2022-08-26T04:11:46;98100.88;;;21.79;75.11
34979;BME280;21185;50.978;13.720;2022-08-26T04:16:52;98102.72;;;21.78;75.23
34979;BME280;21185;50.978;13.720;2022-08-26T04:21:56;98106.94;;;21.79;75.40
34979;BME280;21185;50.978;13.720;2022-08-26T04:26:58;98102.72;;;21.78;75.53
34979;BME280;21185;50.978;13.720;2022-08-26T04:32:00;98102.72;;;21.78;75.35
34979;BME280;21185;50.978;13.720;2022-08-26T04:37:04;98104.56;;;21.78;75.81
34979;BME280;21185;50.978;13.720;2022-08-26T04:42:08;98106.94;;;21.79;75.58
34979;BME280;21185;50.978;13.720;2022-08-26T04:47:27;98104.06;;;21.81;75.90
34979;BME280;21185;50.978;13.720;2022-08-26T04:52:50;98100.63;;;21.80;75.74
34979;BME280;21185;50.978;13.720;2022-08-26T04:57:52;98109.13;;;21.82;76.03
34979;BME280;21185;50.978;13.720;2022-08-26T05:02:54;98103.84;;;21.82;76.16
34979;BME280;21185;50.978;13.720;2022-08-26T05:07:56;98101.75;;;21.84;75.99
34979;BME280;21185;50.978;13.720;2022-08-26T05:13:00;98115.75;;;21.85;76.31
34979;BME280;21185;50.978;13.720;2022-08-26T05:18:13;98103.34;;;21.85;76.58
34979;BME280;21185;50.978;13.720;2022-08-26T05:23:17;98114.50;;;21.87;76.76
34979;BME280;21185;50.978;13.720;2022-08-26T05:28:21;98110.81;;;21.88;76.57
34979;BME280;21185;50.978;13.720;2022-08-26T05:33:23;98117.69;;;21.89;76.78
34979;BME280;21185;50.978;13.720;2022-08-26T05:38:25;98114.00;;;21.90;76.60
34979;BME280;21185;50.978;13.720;2022-08-26T05:43:31;98110.91;;;21.93;76.79
34979;BME280;21185;50.978;13.720;2022-08-26T05:48:36;98109.38;;;21.97;76.68
34979;BME280;21185;50.978;13.720;2022-08-26T05:53:41;98110.50;;;22.02;77.33
34979;BME280;21185;50.978;13.720;2022-08-26T05:58:45;98105.09;;;22.08;77.00
34979;BME280;21185;50.978;13.720;2022-08-26T06:03:49;98101.72;;;22.13;77.29
34979;BME280;21185;50.978;13.720;2022-08-26T06:08:59;98103.41;;;22.19;77.53
34979;BME280;21185;50.978;13.720;2022-08-26T06:14:03;98100.59;;;22.25;77.24
34979;BME280;21185;50.978;13.720;2022-08-26T06:19:09;98111.00;;;22.32;77.86
34979;BME280;21185;50.978;13.720;2022-08-26T06:24:13;98112.75;;;22.43;77.62
34979;BME280;21185;50.978;13.720;2022-08-26T06:29:35;98108.97;;;22.56;77.70
34979;BME280;21185;50.978;13.720;2022-08-26T06:34:38;98114.41;;;22.66;77.81
34979;BME280;21185;50.978;13.720;2022-08-26T06:39:42;98113.75;;;22.76;77.86
34979;BME280;21185;50.978;13.720;2022-08-26T06:44:43;98108.31;;;22.82;78.19
34979;BME280;21185;50.978;13.720;2022-08-26T06:49:45;98109.66;;;22.85;78.20
34979;BME280;21185;50.978;13.720;2022-08-26T06:54:48;98113.69;;;22.87;78.43
34979;BME280;21185;50.978;13.720;2022-08-26T06:59:51;98107.09;;;22.90;78.59
34979;BME280;21185;50.978;13.720;2022-08-26T07:04:53;98113.50;;;22.94;78.89
34979;BME280;21185;50.978;13.720;2022-08-26T07:09:57;98108.81;;;23.01;78.83
34979;BME280;21185;50.978;13.720;2022-08-26T07:15:00;98112.63;;;23.10;78.73
34979;BME280;21185;50.978;13.720;2022-08-26T07:20:04;98102.97;;;23.21;78.92
34979;BME280;21185;50.978;13.720;2022-08-26T07:25:09;98113.38;;;23.27;79.03
34979;BME280;21185;50.978;13.720;2022-08-26T07:30:13;98110.09;;;23.42;78.81
34979;BME280;21185;50.978;13.720;2022-08-26T07:35:22;98107.44;;;23.64;78.75
34979;BME280;21185;50.978;13.720;2022-08-26T07:40:24;98103.81;;;23.75;78.78
34979;BME280;21185;50.978;13.720;2022-08-26T07:45:27;98101.81;;;23.87;78.62
34979;BME280;21185;50.978;13.720;2022-08-26T07:50:36;98102.69;;;23.98;78.96
34979;BME280;21185;50.978;13.720;2022-08-26T07:55:51;98096.19;;;24.11;78.64
34979;BME280;21185;50.978;13.720;2022-08-26T08:00:54;98096.00;;;24.22;78.70
34979;BME280;21185;50.978;13.720;2022-08-26T08:05:56;98091.06;;;24.31;78.53
34979;BME280;21185;50.978;13.720;2022-08-26T08:10:59;98086.06;;;24.40;78.96
34979;BME280;21185;50.978;13.720;2022-08-26T08:16:03;98094.38;;;24.53;78.58
34979;BME280;21185;50.978;13.720;2022-08-26T08:21:06;98083.03;;;24.63;78.41
34979;BME280;21185;50.978;13.720;2022-08-26T08:26:25;98087.31;;;24.69;78.27
34979;BME280;21185;50.978;13.720;2022-08-26T08:31:30;98082.81;;;24.70;78.32
34979;BME280;21185;50.978;13.720;2022-08-26T08:36:54;98062.66;;;24.74;78.24
34979;BME280;21185;50.978;13.720;2022-08-26T08:48:10;98060.06;;;24.89;77.90
34979;BME280;21185;50.978;13.720;2022-08-26T08:53:15;98060.63;;;24.96;77.72
34979;BME280;21185;50.978;13.720;2022-08-26T08:58:21;98068.03;;;24.94;77.64
34979;BME280;21185;50.978;13.720;2022-08-26T09:09:07;98053.19;;;24.93;77.46
34979;BME280;21185;50.978;13.720;2022-08-26T09:14:15;98055.88;;;24.98;77.56
34979;BME280;21185;50.978;13.720;2022-08-26T09:24:25;98053.91;;;24.78;78.08
34979;BME280;21185;50.978;13.720;2022-08-26T09:29:32;98047.78;;;24.68;78.16
34979;BME280;21185;50.978;13.720;2022-08-26T09:35:03;98050.38;;;24.58;78.28
34979;BME280;21185;50.978;13.720;2022-08-26T09:40:13;98048.47;;;24.48;78.10
34979;BME280;21185;50.978;13.720;2022-08-26T09:45:26;98064.34;;;24.43;78.30
34979;BME280;21185;50.978;13.720;2022-08-26T09:50:59;98059.81;;;24.38;78.46
34979;BME280;21185;50.978;13.720;2022-08-26T10:01:40;98047.84;;;24.31;78.63
34979;BME280;21185;50.978;13.720;2022-08-26T10:07:32;98033.63;;;24.52;78.23
34979;BME280;21185;50.978;13.720;2022-08-26T10:12:41;98028.16;;;24.74;77.78
34979;BME280;21185;50.978;13.720;2022-08-26T10:17:54;98032.94;;;24.72;78.14
34979;BME280;21185;50.978;13.720;2022-08-26T10:23:11;98022.31;;;24.72;78.47
34979;BME280;21185;50.978;13.720;2022-08-26T10:33:45;98003.38;;;25.21;77.88
34979;BME280;21185;50.978;13.720;2022-08-26T10:38:47;97992.50;;;25.17;77.02
34979;BME280;21185;50.978;13.720;2022-08-26T10:43:57;97971.53;;;25.26;76.63
34979;BME280;21185;50.978;13.720;2022-08-26T10:49:08;97964.91;;;25.59;75.25
34979;BME280;21185;50.978;13.720;2022-08-26T10:54:24;97963.03;;;25.85;73.58
34979;BME280;21185;50.978;13.720;2022-08-26T11:05:00;97962.09;;;26.40;72.15
34979;BME280;21185;50.978;13.720;2022-08-26T11:20:45;97957.81;;;26.49;69.40
34979;BME280;21185;50.978;13.720;2022-08-26T11:41:42;97934.69;;;26.99;68.38
34979;BME280;21185;50.978;13.720;2022-08-26T11:47:12;97912.50;;;27.14;67.19
34979;BME280;21185;50.978;13.720;2022-08-26T11:52:21;97882.63;;;27.17;67.57
34979;BME280;21185;50.978;13.720;2022-08-26T11:57:23;97875.13;;;27.24;67.57
34979;BME280;21185;50.978;13.720;2022-08-26T12:02:25;97882.59;;;27.22;68.42
34979;BME280;21185;50.978;13.720;2022-08-26T12:07:28;97868.81;;;27.15;68.51
34979;BME280;21185;50.978;13.720;2022-08-26T12:12:33;97860.81;;;27.15;68.58
34979;BME280;21185;50.978;13.720;2022-08-26T12:17:38;97862.41;;;27.16;68.66
34979;BME280;21185;50.978;13.720;2022-08-26T12:22:42;97867.44;;;27.17;68.50
34979;BME280;21185;50.978;13.720;2022-08-26T12:27:49;97867.44;;;27.17;68.58
34979;BME280;21185;50.978;13.720;2022-08-26T12:33:14;97886.66;;;27.14;67.89
34979;BME280;21185;50.978;13.720;2022-08-26T12:38:26;97870.16;;;27.12;68.25
34979;BME280;21185;50.978;13.720;2022-08-26T12:43:55;97863.19;;;27.16;67.24
34979;BME280;21185;50.978;13.720;2022-08-26T12:48:58;97857.06;;;27.16;67.81
34979;BME280;21185;50.978;13.720;2022-08-26T12:54:04;97862.97;;;27.13;67.67
34979;BME280;21185;50.978;13.720;2022-08-26T13:04:39;97853.47;;;26.96;67.33
34979;BME280;21185;50.978;13.720;2022-08-26T13:09:44;97854.91;;;26.84;67.74
34979;BME280;21185;50.978;13.720;2022-08-26T13:14:47;97846.94;;;26.78;67.85
34979;BME280;21185;50.978;13.720;2022-08-26T13:19:53;97850.69;;;26.77;67.64
34979;BME280;21185;50.978;13.720;2022-08-26T13:24:55;97849.84;;;26.82;67.33
34979;BME280;21185;50.978;13.720;2022-08-26T13:29:59;97831.38;;;26.96;66.98
34979;BME280;21185;50.978;13.720;2022-08-26T13:35:09;97841.22;;;27.00;66.76
34979;BME280;21185;50.978;13.720;2022-08-26T13:40:12;97858.22;;;27.04;66.76
34979;BME280;21185;50.978;13.720;2022-08-26T13:45:15;97867.34;;;26.98;66.47
34979;BME280;21185;50.978;13.720;2022-08-26T13:50:17;97864.19;;;26.86;66.13
34979;BME280;21185;50.978;13.720;2022-08-26T13:55:19;97863.22;;;26.72;65.84
34979;BME280;21185;50.978;13.720;2022-08-26T14:00:21;97857.97;;;26.62;65.66
34979;BME280;21185;50.978;13.720;2022-08-26T14:05:23;97852.16;;;26.55;65.51
34979;BME280;21185;50.978;13.720;2022-08-26T14:10:27;97848.97;;;26.53;65.12
34979;BME280;21185;50.978;13.720;2022-08-26T14:15:32;97831.66;;;26.55;64.93
34979;BME280;21185;50.978;13.720;2022-08-26T14:20:37;97830.22;;;26.73;64.50
34979;BME280;21185;50.978;13.720;2022-08-26T14:25:40;97817.88;;;26.87;64.45
34979;BME280;21185;50.978;13.720;2022-08-26T14:30:44;97817.81;;;26.97;63.93
34979;BME280;21185;50.978;13.720;2022-08-26T14:35:48;97803.44;;;26.98;63.32
34979;BME280;21185;50.978;13.720;2022-08-26T14:40:50;97796.75;;;27.01;62.83
34979;BME280;21185;50.978;13.720;2022-08-26T14:45:52;97790.53;;;27.10;62.86
34979;BME280;21185;50.978;13.720;2022-08-26T14:50:55;97789.13;;;27.18;62.36
34979;BME280;21185;50.978;13.720;2022-08-26T14:55:57;97782.41;;;27.26;62.46
34979;BME280;21185;50.978;13.720;2022-08-26T15:00:59;97782.31;;;27.36;62.37
34979;BME280;21185;50.978;13.720;2022-08-26T15:06:05;97778.97;;;27.49;62.19
34979;BME280;21185;50.978;13.720;2022-08-26T15:11:07;97774.44;;;27.50;61.99
34979;BME280;21185;50.978;13.720;2022-08-26T15:16:10;97775.16;;;27.55;61.85
34979;BME280;21185;50.978;13.720;2022-08-26T15:21:12;97793.44;;;27.67;61.96
34979;BME280;21185;50.978;13.720;2022-08-26T15:26:15;97797.88;;;27.77;61.89
34979;BME280;21185;50.978;13.720;2022-08-26T15:31:23;97799.63;;;27.86;61.39
34979;BME280;21185;50.978;13.720;2022-08-26T15:36:26;97803.03;;;27.92;61.79
34979;BME280;21185;50.978;13.720;2022-08-26T15:41:30;97802.16;;;27.96;61.45
34979;BME280;21185;50.978;13.720;2022-08-26T15:46:36;97787.81;;;27.92;61.69
34979;BME280;21185;50.978;13.720;2022-08-26T15:51:40;97799.06;;;27.89;61.45
34979;BME280;21185;50.978;13.720;2022-08-26T15:56:47;97812.59;;;27.93;61.29
34979;BME280;21185;50.978;13.720;2022-08-26T16:01:52;97818.00;;;27.88;61.11
34979;BME280;21185;50.978;13.720;2022-08-26T16:06:54;97824.53;;;27.77;61.09
34979;BME280;21185;50.978;13.720;2022-08-26T16:11:58;97825.72;;;27.65;60.92
34979;BME280;21185;50.978;13.720;2022-08-26T16:17:00;97827.66;;;27.60;60.89
34979;BME280;21185;50.978;13.720;2022-08-26T16:22:07;97822.91;;;27.52;60.83
34979;BME280;21185;50.978;13.720;2022-08-26T16:27:09;97832.88;;;27.41;60.88
34979;BME280;21185;50.978;13.720;2022-08-26T16:32:13;97844.69;;;27.30;60.94
34979;BME280;21185;50.978;13.720;2022-08-26T16:37:15;97838.38;;;27.21;60.99
34979;BME280;21185;50.978;13.720;2022-08-26T16:42:17;97819.31;;;27.08;61.29
34979;BME280;21185;50.978;13.720;2022-08-26T16:47:19;97813.03;;;26.94;61.45
34979;BME280;21185;50.978;13.720;2022-08-26T16:52:22;97811.50;;;26.83;61.53
34979;BME280;21185;50.978;13.720;2022-08-26T16:57:31;97815.88;;;26.69;61.62
34979;BME280;21185;50.978;13.720;2022-08-26T17:02:33;97818.59;;;26.59;61.66
34979;BME280;21185;50.978;13.720;2022-08-26T17:07:35;97818.97;;;26.42;62.30
34979;BME280;21185;50.978;13.720;2022-08-26T17:12:39;97826.25;;;26.21;62.86
34979;BME280;21185;50.978;13.720;2022-08-26T17:17:41;97833.31;;;25.97;63.99
34979;BME280;21185;50.978;13.720;2022-08-26T17:22:46;97816.38;;;25.72;65.06
34979;BME280;21185;50.978;13.720;2022-08-26T17:27:49;97815.06;;;25.55;65.46
34979;BME280;21185;50.978;13.720;2022-08-26T17:32:52;97795.69;;;25.44;66.08
34979;BME280;21185;50.978;13.720;2022-08-26T17:37:54;97776.59;;;25.37;66.24
34979;BME280;21185;50.978;13.720;2022-08-26T17:42:57;97776.59;;;25.32;66.57
34979;BME280;21185;50.978;13.720;2022-08-26T17:47:59;97780.59;;;25.24;66.90
34979;BME280;21185;50.978;13.720;2022-08-26T17:53:03;97775.31;;;25.19;67.58
34979;BME280;21185;50.978;13.720;2022-08-26T17:58:05;97797.88;;;25.11;67.80
34979;BME280;21185;50.978;13.720;2022-08-26T18:03:10;97798.41;;;25.03;68.08
34979;BME280;21185;50.978;13.720;2022-08-26T18:08:13;97807.19;;;24.99;68.19
34979;BME280;21185;50.978;13.720;2022-08-26T18:13:16;97816.16;;;24.93;68.50
34979;BME280;21185;50.978;13.720;2022-08-26T18:18:18;97822.00;;;24.90;68.72
34979;BME280;21185;50.978;13.720;2022-08-26T18:23:20;97805.28;;;24.89;68.94
34979;BME280;21185;50.978;13.720;2022-08-26T18:28:22;97797.59;;;24.88;69.50
34979;BME280;21185;50.978;13.720;2022-08-26T18:33:24;97811.13;;;24.86;69.69
34979;BME280;21185;50.978;13.720;2022-08-26T18:38:26;97834.22;;;24.85;69.59
34979;BME280;21185;50.978;13.720;2022-08-26T18:43:29;97850.41;;;24.79;70.14
34979;BME280;21185;50.978;13.720;2022-08-26T18:48:30;97862.59;;;24.75;70.58
34979;BME280;21185;50.978;13.720;2022-08-26T18:53:33;97871.88;;;24.72;70.37
34979;BME280;21185;50.978;13.720;2022-08-26T18:58:36;97857.81;;;24.67;70.99
34979;BME280;21185;50.978;13.720;2022-08-26T19:03:38;97855.69;;;24.64;70.86
34979;BME280;21185;50.978;13.720;2022-08-26T19:08:39;97856.75;;;24.63;70.90
34979;BME280;21185;50.978;13.720;2022-08-26T19:13:45;97845.31;;;24.57;71.05
34979;BME280;21185;50.978;13.720;2022-08-26T19:18:48;97859.09;;;24.54;71.15
34979;BME280;21185;50.978;13.720;2022-08-26T19:23:56;97858.03;;;24.50;71.33
34979;BME280;21185;50.978;13.720;2022-08-26T19:28:59;97843.97;;;24.44;71.01
34979;BME280;21185;50.978;13.720;2022-08-26T19:34:02;97839.72;;;24.43;71.11
34979;BME280;21185;50.978;13.720;2022-08-26T19:39:06;97846.63;;;24.44;71.15
34979;BME280;21185;50.978;13.720;2022-08-26T19:44:12;97858.25;;;24.33;71.81
34979;BME280;21185;50.978;13.720;2022-08-26T19:49:36;97852.09;;;24.22;71.80
34979;BME280;21185;50.978;13.720;2022-08-26T19:54:38;97838.56;;;24.19;72.07
34979;BME280;21185;50.978;13.720;2022-08-26T19:59:42;97835.13;;;24.18;71.93
34979;BME280;21185;50.978;13.720;2022-08-26T20:04:44;97817.88;;;24.16;72.14
34979;BME280;21185;50.978;13.720;2022-08-26T20:09:47;97813.63;;;24.10;71.76
34979;BME280;21185;50.978;13.720;2022-08-26T20:14:49;97819.97;;;24.04;72.00
34979;BME280;21185;50.978;13.720;2022-08-26T20:19:51;97821.00;;;24.03;71.89
34979;BME280;21185;50.978;13.720;2022-08-26T20:25:32;97831.59;;;23.98;72.18
34979;BME280;21185;50.978;13.720;2022-08-26T20:30:34;97829.47;;;24.00;71.97
34979;BME280;21185;50.978;13.720;2022-08-26T20:35:36;97828.97;;;24.03;71.98
34979;BME280;21185;50.978;13.720;2022-08-26T20:40:39;97827.09;;;24.03;72.44
34979;BME280;21185;50.978;13.720;2022-08-26T20:45:43;97833.47;;;24.02;72.63
34979;BME280;21185;50.978;13.720;2022-08-26T20:50:45;97844.03;;;23.97;72.54
34979;BME280;21185;50.978;13.720;2022-08-26T20:55:47;97849.31;;;23.87;72.45
34979;BME280;21185;50.978;13.720;2022-08-26T21:00:52;97845.81;;;23.76;72.53
34979;BME280;21185;50.978;13.720;2022-08-26T21:05:54;97846.06;;;23.75;72.70
34979;BME280;21185;50.978;13.720;2022-08-26T21:10:55;97830.41;;;23.73;72.26
34979;BME280;21185;50.978;13.720;2022-08-26T21:15:57;97828.53;;;23.69;72.13
34979;BME280;21185;50.978;13.720;2022-08-26T21:21:07;97832.75;;;23.65;72.29
34979;BME280;21185;50.978;13.720;2022-08-26T21:26:11;97846.50;;;23.62;72.49
34979;BME280;21185;50.978;13.720;2022-08-26T21:31:20;97847.28;;;23.57;72.37
34979;BME280;21185;50.978;13.720;2022-08-26T21:36:23;97836.88;;;23.50;72.64
34979;BME280;21185;50.978;13.720;2022-08-26T21:41:26;97821.22;;;23.44;73.06
34979;BME280;21185;50.978;13.720;2022-08-26T21:46:29;97825.19;;;23.41;73.49
34979;BME280;21185;50.978;13.720;2022-08-26T21:51:34;97819.09;;;23.41;73.38
34979;BME280;21185;50.978;13.720;2022-08-26T21:56:39;97817.22;;;23.41;73.14
34979;BME280;21185;50.978;13.720;2022-08-26T22:01:42;97812.19;;;23.40;72.99
34979;BME280;21185;50.978;13.720;2022-08-26T22:06:47;97817.22;;;23.41;73.56
34979;BME280;21185;50.978;13.720;2022-08-26T22:11:51;97810.34;;;23.40;73.19
34979;BME280;21185;50.978;13.720;2022-08-26T22:16:55;97807.16;;;23.38;73.63
34979;BME280;21185;50.978;13.720;2022-08-26T22:21:57;97811.41;;;23.39;73.37
34979;BME280;21185;50.978;13.720;2022-08-26T22:27:00;97808.22;;;23.37;73.45
34979;BME280;21185;50.978;13.720;2022-08-26T22:32:02;97805.28;;;23.34;73.67
34979;BME280;21185;50.978;13.720;2022-08-26T22:37:04;97814.28;;;23.33;73.57
34979;BME280;21185;50.978;13.720;2022-08-26T22:42:06;97820.38;;;23.33;73.66
34979;BME280;21185;50.978;13.720;2022-08-26T22:47:08;97814.28;;;23.33;74.02
34979;BME280;21185;50.978;13.720;2022-08-26T22:52:10;97828.56;;;23.32;73.97
34979;BME280;21185;50.978;13.720;2022-08-26T22:57:12;97835.97;;;23.30;74.02
34979;BME280;21185;50.978;13.720;2022-08-26T23:02:14;97831.72;;;23.29;74.34
34979;BME280;21185;50.978;13.720;2022-08-26T23:07:16;97826.41;;;23.29;74.43
34979;BME280;21185;50.978;13.720;2022-08-26T23:12:18;97840.72;;;23.27;74.19
34979;BME280;21185;50.978;13.720;2022-08-26T23:17:20;97838.06;;;23.27;74.41
34979;BME280;21185;50.978;13.720;2022-08-26T23:22:23;97839.38;;;23.25;74.42
34979;BME280;21185;50.978;13.720;2022-08-26T23:27:25;97848.63;;;23.22;74.65
34979;BME280;21185;50.978;13.720;2022-08-26T23:32:28;97850.16;;;23.18;74.79
34979;BME280;21185;50.978;13.720;2022-08-26T23:37:33;97858.06;;;23.13;74.88
34979;BME280;21185;50.978;13.720;2022-08-26T23:42:36;97866.50;;;23.10;75.24
34979;BME280;21185;50.978;13.720;2022-08-26T23:47:39;97864.91;;;23.09;74.90
34979;BME280;21185;50.978;13.720;2022-08-26T23:52:42;97868.38;;;23.10;74.95
34979;BME280;21185;50.978;13.720;2022-08-26T23:58:03;97861.22;;;23.10;75.02
